Time;durP1;ratioP1;P1;durP2;ratioP2;P2;SDS_P1;SDS_P2;PMS_P1;PMS_P2;Temp;Humidity;BMP_temperature;BMP_pressure;BME280_temperature;BME280_humidity;BME280_pressure;Samples;Min_cycle;Max_cycle;Signal;HPM_P1;HPM_P2
2022/06/06 00:01:26;;;;;;;43.65;23.35;;;15.00;99.90;;;;;;5061868;28;20048;-86
2022/06/06 00:03:52;;;;;;;38.33;20.85;;;15.00;99.90;;;;;;5066662;28;20044;-87
2022/06/06 00:06:27;;;;;;;47.75;23.45;;;15.00;99.90;;;;;;5081491;28;20047;-87
2022/06/06 00:08:53;;;;;;;38.78;21.77;;;14.90;99.90;;;;;;5065305;28;20064;-90
2022/06/06 00:11:36;;;;;;;45.60;23.83;;;14.90;99.90;;;;;;5068693;28;20048;-87
2022/06/06 00:14:13;;;;;;;50.05;23.95;;;14.90;99.90;;;;;;5062235;28;20100;-89
2022/06/06 00:16:56;;;;;;;43.30;21.73;;;14.90;99.90;;;;;;5056656;28;20044;-90
2022/06/06 00:19:26;;;;;;;30.48;17.77;;;14.90;99.90;;;;;;5079999;28;20040;-88
2022/06/06 00:21:55;;;;;;;31.23;18.35;;;14.90;99.90;;;;;;5071845;28;20047;-88
2022/06/06 00:24:23;;;;;;;22.05;14.32;;;14.80;99.90;;;;;;5072931;28;20462;-87
2022/06/06 00:27:04;;;;;;;23.65;15.85;;;14.70;99.90;;;;;;5042816;28;20045;-89
2022/06/06 00:29:35;;;;;;;28.75;16.35;;;14.70;99.90;;;;;;5062680;28;20075;-87
2022/06/06 00:34:54;;;;;;;21.90;14.82;;;14.70;99.90;;;;;;5066726;28;20052;-88
2022/06/06 00:37:29;;;;;;;27.52;17.00;;;14.70;99.90;;;;;;5085032;28;20086;-87
2022/06/06 00:39:56;;;;;;;29.58;17.35;;;14.70;99.90;;;;;;5073263;28;20098;-87
2022/06/06 00:42:34;;;;;;;28.67;17.33;;;14.60;99.90;;;;;;5081084;28;20101;-87
2022/06/06 00:45:22;;;;;;;27.58;16.88;;;14.70;99.90;;;;;;5066701;28;20052;-88
2022/06/06 00:48:00;;;;;;;21.58;15.20;;;14.70;99.90;;;;;;5089063;28;20448;-88
2022/06/06 00:50:37;;;;;;;25.95;16.55;;;14.70;99.90;;;;;;5082347;28;20078;-88
2022/06/06 00:53:04;;;;;;;23.25;15.73;;;14.70;99.90;;;;;;5084384;28;20058;-88
2022/06/06 00:55:35;;;;;;;25.92;15.55;;;14.60;99.90;;;;;;5073815;28;20047;-87
2022/06/06 00:58:08;;;;;;;35.40;18.75;;;14.70;99.90;;;;;;5060896;28;20429;-89
2022/06/06 01:00:33;;;;;;;30.92;17.65;;;14.60;99.90;;;;;;5076541;28;20109;-88
2022/06/06 01:03:03;;;;;;;30.80;17.85;;;14.60;99.90;;;;;;5068653;28;20052;-88
2022/06/06 01:05:29;;;;;;;30.40;18.02;;;14.60;99.90;;;;;;5059600;28;20078;-88
2022/06/06 01:07:55;;;;;;;23.80;13.93;;;14.60;99.90;;;;;;5067734;28;20064;-89
2022/06/06 01:10:21;;;;;;;24.00;15.18;;;14.60;99.90;;;;;;5045784;28;20090;-88
2022/06/06 01:12:51;;;;;;;20.65;13.52;;;14.60;99.90;;;;;;5063225;28;20493;-88
2022/06/06 01:15:20;;;;;;;22.40;14.50;;;14.60;99.90;;;;;;5077801;28;20626;-88
2022/06/06 01:18:13;;;;;;;32.55;16.48;;;14.50;99.90;;;;;;5075433;28;20040;-88
2022/06/06 01:21:18;;;;;;;21.77;12.93;;;14.50;99.90;;;;;;5066974;28;20461;-88
2022/06/06 01:24:10;;;;;;;14.32;9.60;;;14.50;99.90;;;;;;5072429;28;20492;-89
2022/06/06 01:26:44;;;;;;;18.48;11.18;;;14.50;99.90;;;;;;5078809;28;20049;-88
2022/06/06 01:29:18;;;;;;;15.80;9.60;;;14.50;99.90;;;;;;5061071;28;20067;-88
2022/06/06 01:32:07;;;;;;;19.67;11.40;;;14.50;99.90;;;;;;5065313;28;20114;-88
2022/06/06 01:34:36;;;;;;;15.02;9.70;;;14.40;99.90;;;;;;5092044;28;20051;-88
2022/06/06 01:37:04;;;;;;;13.18;9.13;;;14.40;99.90;;;;;;5075826;28;20102;-88
2022/06/06 01:39:31;;;;;;;15.30;9.35;;;14.40;99.90;;;;;;5085395;28;20044;-88
2022/06/06 01:42:08;;;;;;;19.50;11.30;;;14.40;99.90;;;;;;5050215;28;20081;-88
2022/06/06 01:45:06;;;;;;;20.63;11.65;;;14.40;99.90;;;;;;5068195;28;20051;-86
2022/06/06 01:47:37;;;;;;;14.88;10.93;;;14.30;99.90;;;;;;5040566;28;20072;-89
2022/06/06 01:50:06;;;;;;;18.58;11.68;;;14.30;99.90;;;;;;5064740;28;20082;-87
2022/06/06 01:53:00;;;;;;;23.80;13.88;;;14.30;99.90;;;;;;5074394;28;20109;-88
2022/06/06 01:55:29;;;;;;;30.10;14.85;;;14.30;99.90;;;;;;5088358;28;20044;-87
2022/06/06 01:57:59;;;;;;;21.00;13.13;;;14.30;99.90;;;;;;5083564;28;20093;-88
2022/06/06 02:00:25;;;;;;;21.83;12.70;;;14.20;99.90;;;;;;5065469;28;20083;-87
2022/06/06 02:02:52;;;;;;;15.20;10.80;;;14.20;99.90;;;;;;5063172;28;20049;-87
2022/06/06 02:05:18;;;;;;;23.10;15.10;;;14.20;99.90;;;;;;5067412;28;20049;-87
2022/06/06 02:07:44;;;;;;;23.83;14.50;;;14.20;99.90;;;;;;5074124;28;20059;-86
2022/06/06 02:10:11;;;;;;;23.30;14.05;;;14.20;99.90;;;;;;5059194;28;20040;-86
2022/06/06 02:12:41;;;;;;;27.92;15.93;;;14.10;99.90;;;;;;5046232;28;20047;-86
2022/06/06 02:15:09;;;;;;;23.45;14.93;;;14.10;99.90;;;;;;5061690;28;20048;-86
2022/06/06 02:17:35;;;;;;;28.55;15.63;;;14.20;99.90;;;;;;5056988;28;20428;-87
2022/06/06 02:20:03;;;;;;;22.00;13.70;;;14.10;99.90;;;;;;5084270;28;20048;-88
2022/06/06 02:22:28;;;;;;;31.85;16.73;;;14.10;99.90;;;;;;5067876;28;20101;-89
2022/06/06 02:24:55;;;;;;;29.27;16.35;;;14.10;99.90;;;;;;5043349;28;20131;-87
2022/06/06 02:27:20;;;;;;;29.00;16.95;;;14.10;99.90;;;;;;5065421;28;20040;-88
2022/06/06 02:29:46;;;;;;;28.17;16.40;;;14.00;99.90;;;;;;5053353;28;20044;-87
2022/06/06 02:32:12;;;;;;;33.08;18.38;;;14.00;99.90;;;;;;5046126;28;20056;-87
2022/06/06 02:34:38;;;;;;;24.73;14.32;;;14.10;99.90;;;;;;5060973;28;20050;-88
2022/06/06 02:37:05;;;;;;;30.65;16.80;;;14.10;99.90;;;;;;5046641;28;20053;-87
2022/06/06 02:39:30;;;;;;;31.17;18.02;;;14.00;99.90;;;;;;5073654;28;20070;-88
2022/06/06 02:41:56;;;;;;;29.13;15.75;;;14.00;99.90;;;;;;5054847;28;20486;-88
2022/06/06 02:44:23;;;;;;;26.42;15.82;;;14.00;99.90;;;;;;5065037;28;20052;-89
2022/06/06 02:46:49;;;;;;;34.80;17.38;;;14.00;99.90;;;;;;5048656;28;20058;-88
2022/06/06 02:49:14;;;;;;;39.97;20.45;;;14.00;99.90;;;;;;5043441;28;20044;-88
2022/06/06 02:51:40;;;;;;;37.72;18.40;;;14.00;99.90;;;;;;5076483;28;20508;-88
2022/06/06 02:54:06;;;;;;;27.63;15.55;;;14.00;99.90;;;;;;5041346;28;20039;-91
2022/06/06 02:56:33;;;;;;;32.95;18.40;;;14.00;99.90;;;;;;5041162;28;20463;-90
2022/06/06 02:59:03;;;;;;;27.27;15.05;;;14.00;99.90;;;;;;5048012;28;20098;-90
2022/06/06 03:01:29;;;;;;;29.98;15.57;;;14.00;99.90;;;;;;5059677;28;20473;-90
2022/06/06 03:03:54;;;;;;;34.22;17.45;;;14.00;99.90;;;;;;5067697;28;20056;-90
2022/06/06 03:06:33;;;;;;;33.65;17.60;;;14.00;99.90;;;;;;5084595;28;20036;-90
2022/06/06 03:09:30;;;;;;;38.28;19.05;;;14.00;99.90;;;;;;5084306;28;20044;-93
2022/06/06 03:11:59;;;;;;;28.88;16.60;;;14.00;99.90;;;;;;5076825;28;20060;-92
2022/06/06 03:14:27;;;;;;;30.90;15.48;;;14.00;99.90;;;;;;5061062;28;20135;-90
2022/06/06 03:23:31;;;;;;;25.70;13.13;;;14.10;99.90;;;;;;5084411;28;20044;-90
2022/06/06 03:26:21;;;;;;;17.10;10.70;;;14.10;99.90;;;;;;5061277;28;20052;-91
2022/06/06 03:29:14;;;;;;;20.88;11.48;;;14.10;99.90;;;;;;5058431;28;20141;-90
2022/06/06 03:31:46;;;;;;;24.23;13.70;;;14.10;99.90;;;;;;5066308;28;20071;-91
2022/06/06 03:34:34;;;;;;;21.23;13.15;;;14.10;99.90;;;;;;5059634;28;20059;-89
2022/06/06 03:37:06;;;;;;;37.45;18.15;;;14.10;99.90;;;;;;5082719;28;20059;-90
2022/06/06 03:40:12;;;;;;;32.97;17.50;;;14.10;99.90;;;;;;5087656;28;20040;-91
2022/06/06 03:42:52;;;;;;;36.80;17.80;;;14.00;99.90;;;;;;5051393;28;20120;-90
2022/06/06 03:45:42;;;;;;;41.17;18.92;;;14.00;99.90;;;;;;5060599;28;20054;-91
2022/06/06 03:48:29;;;;;;;60.53;21.58;;;14.00;99.90;;;;;;5061529;28;20041;-90
2022/06/06 03:51:17;;;;;;;47.90;19.50;;;13.90;99.90;;;;;;5066127;28;20058;-90
2022/06/06 03:53:55;;;;;;;38.60;16.48;;;13.90;99.90;;;;;;5070860;28;20512;-91
2022/06/06 03:56:37;;;;;;;46.88;18.85;;;13.90;99.90;;;;;;5054221;28;20052;-90
2022/06/06 03:59:05;;;;;;;45.35;19.38;;;13.80;99.90;;;;;;5063131;28;20052;-91
2022/06/06 04:01:33;;;;;;;43.95;17.20;;;13.80;99.90;;;;;;5047051;28;20040;-90
2022/06/06 04:04:03;;;;;;;39.30;17.50;;;13.80;99.90;;;;;;5061617;28;20070;-91
2022/06/06 04:06:31;;;;;;;34.35;17.35;;;13.80;99.90;;;;;;5054589;28;20559;-90
2022/06/06 04:08:57;;;;;;;53.10;22.52;;;13.70;99.90;;;;;;5056414;28;20497;-90
2022/06/06 04:11:29;;;;;;;32.33;15.82;;;13.70;99.90;;;;;;5059517;28;20133;-91
2022/06/06 04:14:10;;;;;;;42.00;19.55;;;13.70;99.90;;;;;;5055652;28;20143;-90
2022/06/06 04:16:54;;;;;;;33.15;14.77;;;13.60;99.90;;;;;;5066846;28;20051;-93
2022/06/06 04:19:37;;;;;;;34.92;15.70;;;13.60;99.90;;;;;;5062623;28;20439;-91
2022/06/06 04:22:18;;;;;;;26.00;11.98;;;13.60;99.90;;;;;;5079074;28;20036;-90
2022/06/06 04:24:52;;;;;;;17.45;8.73;;;13.60;99.90;;;;;;5084121;28;20044;-90
2022/06/06 04:27:33;;;;;;;22.00;10.40;;;13.50;99.90;;;;;;5058443;28;20041;-89
2022/06/06 04:30:03;;;;;;;14.18;8.25;;;13.50;99.90;;;;;;5057798;28;20112;-90
2022/06/06 04:32:45;;;;;;;21.33;9.02;;;13.50;99.90;;;;;;5060155;28;20083;-89
2022/06/06 04:35:51;;;;;;;17.25;9.80;;;13.50;99.90;;;;;;5070477;28;20516;-90
2022/06/06 04:38:30;;;;;;;20.75;10.02;;;13.50;99.90;;;;;;5086461;28;20570;-90
2022/06/06 04:41:12;;;;;;;17.27;7.50;;;13.50;99.90;;;;;;5084189;28;20060;-89
2022/06/06 04:44:29;;;;;;;17.67;7.72;;;13.50;99.90;;;;;;5066762;28;20051;-89
2022/06/06 04:47:10;;;;;;;24.88;11.13;;;13.40;99.90;;;;;;5059454;28;20048;-90
2022/06/06 04:49:36;;;;;;;34.10;13.45;;;13.40;99.90;;;;;;5061148;28;20051;-89
2022/06/06 04:52:03;;;;;;;30.85;14.38;;;13.40;99.90;;;;;;5064085;28;20043;-89
2022/06/06 04:54:35;;;;;;;37.53;15.68;;;13.40;99.90;;;;;;5089913;28;20055;-88
2022/06/06 04:57:03;;;;;;;33.10;16.17;;;13.50;99.90;;;;;;5066842;28;20076;-89
2022/06/06 04:59:42;;;;;;;42.92;19.20;;;13.40;99.90;;;;;;5065972;28;20052;-89
2022/06/06 05:02:11;;;;;;;47.50;20.35;;;13.40;99.90;;;;;;5060331;28;20044;-89
2022/06/06 05:05:14;;;;;;;46.35;21.42;;;13.40;99.90;;;;;;5078078;28;20151;-89
2022/06/06 05:08:03;;;;;;;67.22;26.25;;;13.30;99.90;;;;;;5055138;28;20122;-90
2022/06/06 05:11:19;;;;;;;52.72;23.17;;;13.30;99.90;;;;;;5088635;28;20056;-91
2022/06/06 05:14:09;;;;;;;;;;;;;;;;;;;;;
2022/06/06 05:17:05;;;;;;;53.83;23.80;;;13.40;99.90;;;;;;5084200;28;20507;-90
2022/06/06 05:19:55;;;;;;;62.65;27.13;;;13.40;99.90;;;;;;5057498;28;20036;-90
2022/06/06 05:22:35;;;;;;;62.28;25.35;;;13.40;99.90;;;;;;5068003;28;20047;-91
2022/06/06 05:25:35;;;;;;;67.93;28.63;;;13.40;99.90;;;;;;5083427;28;20547;-91
2022/06/06 05:28:18;;;;;;;54.72;23.75;;;13.40;99.90;;;;;;5079505;28;20051;-91
2022/06/06 05:31:34;;;;;;;64.85;26.17;;;13.40;99.90;;;;;;5073522;28;20048;-90
2022/06/06 05:34:27;;;;;;;61.23;25.77;;;13.40;99.90;;;;;;5079734;28;20443;-92
2022/06/06 05:37:03;;;;;;;55.15;22.67;;;13.40;99.90;;;;;;5081002;28;20044;-91
2022/06/06 05:39:37;;;;;;;51.17;21.63;;;13.40;99.90;;;;;;5074597;28;20552;-90
2022/06/06 05:42:06;;;;;;;52.88;20.45;;;13.40;99.90;;;;;;5068790;28;20039;-90
2022/06/06 05:44:49;;;;;;;35.00;16.98;;;13.40;99.90;;;;;;5070492;28;20047;-89
2022/06/06 05:47:36;;;;;;;40.63;18.17;;;13.40;99.90;;;;;;5068047;28;20468;-89
2022/06/06 05:50:12;;;;;;;38.80;16.75;;;13.30;99.90;;;;;;5062709;28;20055;-90
2022/06/06 05:53:00;;;;;;;;;;;13.30;99.90;;;;;;5066048;28;20044;-89
2022/06/06 05:55:29;;;;;;;;;;;13.30;99.90;;;;;;5066891;28;19919;-90
2022/06/06 05:58:25;;;;;;;29.45;12.40;;;13.20;99.90;;;;;;5080196;28;20051;-91
2022/06/06 06:00:57;;;;;;;31.55;13.85;;;13.20;99.90;;;;;;5067495;28;20075;-87
2022/06/06 06:04:06;;;;;;;37.15;15.98;;;13.20;99.90;;;;;;5067871;28;20076;-90
2022/06/06 06:07:00;;;;;;;26.90;13.25;;;13.30;99.90;;;;;;5072817;28;20044;-90
2022/06/06 06:09:55;;;;;;;29.80;13.35;;;13.30;99.90;;;;;;5068162;28;20056;-90
2022/06/06 06:12:42;;;;;;;29.15;13.20;;;13.30;99.90;;;;;;5067505;28;20469;-91
2022/06/06 06:15:24;;;;;;;28.00;12.32;;;13.30;99.90;;;;;;5092939;28;20484;-89
2022/06/06 06:18:07;;;;;;;24.02;12.48;;;13.30;99.90;;;;;;5088606;28;20052;-90
2022/06/06 06:21:14;;;;;;;22.80;11.38;;;13.40;99.90;;;;;;5077769;28;20477;-91
2022/06/06 06:23:48;;;;;;;26.20;12.20;;;13.30;99.90;;;;;;5078088;28;20093;-89
2022/06/06 06:26:17;;;;;;;22.15;11.65;;;13.40;99.90;;;;;;5064296;28;20039;-90
2022/06/06 06:28:45;;;;;;;23.58;11.48;;;13.40;99.90;;;;;;5079028;28;20078;-89
2022/06/06 06:31:32;;;;;;;21.10;10.15;;;13.40;99.90;;;;;;5070386;28;20055;-88
2022/06/06 06:34:16;;;;;;;25.27;11.50;;;13.40;99.90;;;;;;5081858;28;20082;-89
2022/06/06 06:37:07;;;;;;;19.67;11.00;;;13.40;99.90;;;;;;5068341;28;20512;-87
2022/06/06 06:39:54;;;;;;;22.65;10.02;;;13.50;99.90;;;;;;5091948;28;20090;-88
2022/06/06 06:42:32;;;;;;;27.08;13.20;;;13.40;99.90;;;;;;5065312;28;20558;-89
2022/06/06 06:45:21;;;;;;;25.40;12.00;;;13.50;99.90;;;;;;5081057;28;20497;-90
2022/06/06 06:47:53;;;;;;;28.50;12.82;;;13.40;99.90;;;;;;5068559;28;20040;-88
2022/06/06 06:50:30;;;;;;;29.38;12.13;;;13.40;99.90;;;;;;5085020;28;20138;-87
2022/06/06 06:53:05;;;;;;;25.85;11.20;;;13.50;99.90;;;;;;5085681;28;20128;-88
2022/06/06 06:55:36;;;;;;;27.23;13.90;;;13.50;99.90;;;;;;5083363;28;20043;-90
2022/06/06 06:58:39;;;;;;;31.20;13.63;;;13.60;99.90;;;;;;5083203;28;20044;-85
2022/06/06 07:01:19;;;;;;;29.02;12.02;;;13.80;99.90;;;;;;5072032;28;20083;-83
2022/06/06 07:10:04;;;;;;;22.42;10.77;;;14.30;99.90;;;;;;5083902;28;20058;-84
2022/06/06 07:12:57;;;;;;;17.50;9.23;;;14.30;99.90;;;;;;5060883;28;20036;-85
2022/06/06 07:15:26;;;;;;;17.67;9.20;;;14.40;99.90;;;;;;5067899;28;20583;-85
2022/06/06 07:17:58;;;;;;;17.30;8.38;;;14.60;99.90;;;;;;5075296;28;20175;-86
2022/06/06 07:20:25;;;;;;;10.55;5.70;;;14.60;99.90;;;;;;5067989;28;20043;-86
2022/06/06 07:23:04;;;;;;;10.32;6.43;;;14.80;99.90;;;;;;5069991;28;20043;-86
2022/06/06 07:25:37;;;;;;;12.80;5.95;;;14.90;99.90;;;;;;5074136;28;20116;-85
2022/06/06 07:28:04;;;;;;;10.93;6.20;;;14.90;99.90;;;;;;5070336;28;20064;-88
2022/06/06 07:30:34;;;;;;;9.90;5.60;;;15.10;99.90;;;;;;5092525;28;20044;-86
2022/06/06 07:33:39;;;;;;;8.93;4.57;;;15.50;99.90;;;;;;5088508;28;20497;-86
2022/06/06 07:36:24;;;;;;;9.73;4.78;;;15.70;99.90;;;;;;5091820;28;20445;-87
2022/06/06 07:39:01;;;;;;;7.68;4.28;;;15.40;99.90;;;;;;5081172;28;20455;-86
2022/06/06 07:41:44;;;;;;;7.78;4.80;;;15.20;99.90;;;;;;5068982;28;20666;-86
2022/06/06 07:44:16;;;;;;;8.88;4.75;;;15.10;99.90;;;;;;5086308;28;20043;-87
2022/06/06 07:46:55;;;;;;;9.18;4.20;;;15.10;99.90;;;;;;5061933;28;20876;-86
2022/06/06 07:49:59;;;;;;;7.30;4.70;;;15.10;99.90;;;;;;5073169;28;20051;-87
2022/06/06 07:52:56;;;;;;;8.40;4.82;;;15.10;99.90;;;;;;5076869;28;20169;-87
2022/06/06 07:55:33;;;;;;;7.32;4.78;;;15.10;99.90;;;;;;5081412;28;20091;-87
2022/06/06 07:58:05;;;;;;;6.82;4.30;;;15.40;99.90;;;;;;5077007;28;20055;-87
2022/06/06 08:00:31;;;;;;;9.77;5.10;;;15.80;99.90;;;;;;5069652;28;20579;-86
2022/06/06 08:03:23;;;;;;;7.25;4.72;;;15.90;99.90;;;;;;5069884;28;20073;-87
2022/06/06 08:06:08;;;;;;;11.75;5.97;;;15.90;99.90;;;;;;5067350;28;20052;-87
2022/06/06 08:08:53;;;;;;;12.27;6.40;;;15.80;99.90;;;;;;5070801;28;20482;-86
2022/06/06 08:11:41;;;;;;;11.73;6.68;;;15.90;99.90;;;;;;5089477;28;20087;-87
2022/06/06 08:14:42;;;;;;;8.48;5.20;;;15.80;99.90;;;;;;5080731;28;20032;-87
2022/06/06 08:17:14;;;;;;;12.50;6.28;;;15.70;99.90;;;;;;5005800;28;20109;-87
2022/06/06 08:20:07;;;;;;;11.50;6.72;;;15.20;99.90;;;;;;5062462;28;20519;-87
2022/06/06 08:22:36;;;;;;;11.90;7.13;;;15.00;99.90;;;;;;5082530;28;20093;-88
2022/06/06 08:25:04;;;;;;;15.88;7.82;;;14.90;99.90;;;;;;5067324;28;20043;-87
2022/06/06 08:27:32;;;;;;;15.10;7.85;;;15.00;99.90;;;;;;5088944;28;21734;-87
2022/06/06 08:29:59;;;;;;;13.70;7.47;;;15.40;99.90;;;;;;5071889;28;20432;-88
2022/06/06 08:32:25;;;;;;;13.25;7.60;;;15.90;99.90;;;;;;5043254;28;20093;-87
2022/06/06 08:34:51;;;;;;;13.75;7.97;;;16.60;99.90;;;;;;5042865;28;20054;-86
2022/06/06 08:37:46;;;;;;;12.70;8.38;;;17.50;99.90;;;;;;5071193;28;20040;-87
2022/06/06 08:40:30;;;;;;;13.02;6.65;;;17.80;99.90;;;;;;5090181;28;20400;-86
2022/06/06 08:42:59;;;;;;;7.97;5.60;;;18.00;99.90;;;;;;5075118;28;20048;-87
2022/06/06 08:45:50;;;;;;;6.85;4.38;;;17.50;99.90;;;;;;5068238;28;20048;-87
2022/06/06 08:48:38;;;;;;;7.28;4.80;;;16.80;99.90;;;;;;5056479;28;20493;-88
2022/06/06 08:51:35;;;;;;;8.82;4.38;;;16.00;99.90;;;;;;5082320;28;20048;-87
2022/06/06 08:54:22;;;;;;;6.53;4.40;;;15.30;99.90;;;;;;5087242;28;20511;-87
2022/06/06 08:57:25;;;;;;;6.20;4.07;;;15.20;99.90;;;;;;5079237;28;20396;-87
2022/06/06 08:59:51;;;;;;;5.30;3.20;;;16.00;99.90;;;;;;5084246;28;20092;-87
2022/06/06 09:02:54;;;;;;;7.10;3.65;;;16.60;99.90;;;;;;5061280;28;20495;-87
2022/06/06 09:05:38;;;;;;;6.43;3.38;;;17.20;99.90;;;;;;5108404;28;20058;-87
2022/06/06 09:08:32;;;;;;;8.18;2.95;;;17.40;99.90;;;;;;5082139;28;20148;-86
2022/06/06 09:11:21;;;;;;;7.97;2.75;;;17.50;99.90;;;;;;5089218;28;20058;-88
2022/06/06 09:14:18;;;;;;;7.07;2.75;;;17.30;99.90;;;;;;5077337;28;20100;-88
2022/06/06 09:17:06;;;;;;;5.00;2.38;;;17.70;99.90;;;;;;5062849;28;20039;-89
2022/06/06 09:19:46;;;;;;;6.22;1.92;;;17.20;99.90;;;;;;5074772;28;20043;-88
2022/06/06 09:22:34;;;;;;;7.40;2.15;;;16.50;99.90;;;;;;5075089;28;20138;-88
2022/06/06 09:25:29;;;;;;;8.50;2.00;;;16.00;99.90;;;;;;5071458;28;20250;-87
2022/06/06 09:28:13;;;;;;;8.82;1.90;;;16.10;99.90;;;;;;5102010;28;20096;-86
2022/06/06 09:30:51;;;;;;;4.88;2.10;;;17.20;99.90;;;;;;5060466;28;20616;-88
2022/06/06 09:33:48;;;;;;;5.32;2.40;;;18.20;99.90;;;;;;5090564;28;20549;-89
2022/06/06 09:36:55;;;;;;;3.17;1.55;;;19.20;99.90;;;;;;5065174;28;20040;-88
2022/06/06 09:39:56;;;;;;;5.03;2.00;;;18.30;99.90;;;;;;5064621;28;20051;-90
2022/06/06 09:42:50;;;;;;;5.22;1.83;;;17.60;99.90;;;;;;5083915;28;20052;-90
2022/06/06 09:45:35;;;;;;;4.22;1.55;;;16.70;99.90;;;;;;5087462;28;20486;-88
2022/06/06 09:48:37;;;;;;;5.15;2.22;;;15.50;99.90;;;;;;5063698;28;20053;-88
2022/06/06 09:51:16;;;;;;;5.20;2.45;;;14.70;99.90;;;;;;5065282;28;20396;-88
2022/06/06 10:01:04;;;;;;;4.20;2.40;;;16.20;99.90;;;;;;5093938;28;20624;-88
2022/06/06 10:03:32;;;;;;;6.47;2.80;;;17.20;99.90;;;;;;5069672;28;20055;-88
2022/06/06 10:06:35;;;;;;;6.20;2.55;;;18.10;99.90;;;;;;5086156;28;20047;-88
2022/06/06 10:09:19;;;;;;;5.25;2.17;;;18.10;99.90;;;;;;5071271;28;20078;-87
2022/06/06 10:12:01;;;;;;;4.00;1.77;;;17.70;99.90;;;;;;5071877;28;20051;-87
2022/06/06 10:14:40;;;;;;;3.20;1.80;;;17.40;99.90;;;;;;5074858;28;20040;-88
2022/06/06 10:17:11;;;;;;;3.80;1.90;;;17.80;99.90;;;;;;5067623;28;20040;-88
2022/06/06 10:20:16;;;;;;;3.92;1.75;;;19.10;99.90;;;;;;5087165;28;20083;-88
2022/06/06 10:23:09;;;;;;;4.28;2.28;;;20.00;99.90;;;;;;5069205;28;20079;-88
2022/06/06 10:25:37;;;;;;;4.40;1.73;;;19.50;99.90;;;;;;5057273;28;20060;-88
2022/06/06 10:28:21;;;;;;;8.02;2.28;;;18.80;99.90;;;;;;5061059;28;20056;-89
2022/06/06 10:31:20;;;;;;;6.43;2.55;;;17.20;99.90;;;;;;5063324;28;20045;-89
2022/06/06 10:34:06;;;;;;;5.50;2.80;;;15.20;99.90;;;;;;5055262;28;20111;-90
2022/06/06 10:36:58;;;;;;;4.55;3.22;;;14.30;99.90;;;;;;5072602;28;20045;-87
2022/06/06 10:39:39;;;;;;;5.40;3.30;;;14.00;99.90;;;;;;5068311;28;20520;-86
2022/06/06 10:42:43;;;;;;;5.28;3.80;;;13.90;99.90;;;;;;5081722;28;20401;-89
2022/06/06 10:45:24;;;;;;;9.18;5.78;;;14.00;99.90;;;;;;5058079;28;20086;-87
2022/06/06 10:48:02;;;;;;;5.97;4.18;;;14.90;99.90;;;;;;5050500;28;20048;-87
2022/06/06 10:50:36;;;;;;;10.00;6.30;;;15.80;99.90;;;;;;5066057;28;20081;-87
2022/06/06 10:53:54;;;;;;;10.25;4.20;;;16.10;99.90;;;;;;5080147;28;20548;-88
2022/06/06 10:56:56;;;;;;;9.20;4.63;;;15.70;99.90;;;;;;5030186;28;20561;-87
2022/06/06 10:59:28;;;;;;;8.75;3.80;;;15.60;99.90;;;;;;5050329;28;20036;-86
2022/06/06 11:02:16;;;;;;;3.28;2.97;;;15.60;99.90;;;;;;5046034;28;20067;-87
2022/06/06 11:05:11;;;;;;;4.72;2.90;;;16.20;99.90;;;;;;5070445;28;20405;-87
2022/06/06 11:07:55;;;;;;;4.05;2.63;;;16.80;99.90;;;;;;5070957;28;20048;-86
2022/06/06 11:10:46;;;;;;;3.38;2.22;;;16.80;99.90;;;;;;5070306;28;20056;-87
2022/06/06 11:13:46;;;;;;;5.85;2.30;;;16.00;99.90;;;;;;5061613;28;20054;-87
2022/06/06 11:16:45;;;;;;;3.67;2.40;;;15.80;99.90;;;;;;5063185;28;20051;-87
2022/06/06 11:19:17;;;;;;;5.68;2.22;;;15.90;99.90;;;;;;5067661;28;20104;-87
2022/06/06 11:22:20;;;;;;;2.67;2.03;;;16.00;99.90;;;;;;5069579;28;20080;-87
2022/06/06 11:25:09;;;;;;;5.80;2.10;;;17.30;99.90;;;;;;5077777;28;20435;-88
2022/06/06 11:28:14;;;;;;;3.65;2.00;;;18.10;99.90;;;;;;5083049;28;20354;-87
2022/06/06 11:30:54;;;;;;;7.35;1.85;;;18.50;99.90;;;;;;5082356;28;20096;-88
2022/06/06 11:33:42;;;;;;;2.92;1.90;;;18.80;99.90;;;;;;5064388;28;20504;-87
2022/06/06 11:36:44;;;;;;;3.15;1.60;;;18.40;99.90;;;;;;5080677;28;20165;-87
2022/06/06 11:39:32;;;;;;;4.53;1.70;;;18.40;99.90;;;;;;5078349;28;20139;-87
2022/06/06 11:41:57;;;;;;;2.25;1.55;;;18.30;99.90;;;;;;5060816;28;20864;-86
2022/06/06 11:44:58;;;;;;;2.60;1.70;;;18.50;99.90;;;;;;5072652;28;20044;-87
2022/06/06 11:47:45;;;;;;;5.57;1.40;;;18.20;99.90;;;;;;5078559;28;20101;-88
2022/06/06 11:50:42;;;;;;;2.85;1.52;;;17.90;99.90;;;;;;5077800;28;20044;-88
2022/06/06 11:53:46;;;;;;;5.55;1.77;;;19.30;99.90;;;;;;5090860;28;20051;-90
2022/06/06 11:56:24;;;;;;;3.80;1.55;;;20.50;99.90;;;;;;5081056;28;20079;-87
2022/06/06 11:59:01;;;;;;;3.45;1.52;;;20.20;99.90;;;;;;5058159;28;20044;-87
2022/06/06 12:02:18;;;;;;;3.17;1.20;;;20.40;99.90;;;;;;5056987;28;20138;-88
2022/06/06 12:05:23;;;;;;;2.78;1.33;;;21.50;99.90;;;;;;5019059;28;20049;-88
2022/06/06 12:08:11;;;;;;;2.75;0.90;;;22.20;95.40;;;;;;5022538;28;20041;-88
2022/06/06 12:11:02;;;;;;;3.05;1.08;;;21.40;99.90;;;;;;5057734;28;20443;-89
2022/06/06 12:14:14;;;;;;;4.38;1.20;;;20.50;99.90;;;;;;5088106;28;20052;-88
2022/06/06 12:17:28;;;;;;;2.00;0.80;;;19.70;97.70;;;;;;5073806;28;20067;-88
2022/06/06 12:20:18;;;;;;;1.02;0.80;;;19.70;99.90;;;;;;5064568;28;20075;-88
2022/06/06 12:22:59;;;;;;;1.02;0.60;;;19.70;93.00;;;;;;5055503;28;20048;-90
2022/06/06 12:25:44;;;;;;;36.00;2.15;;;19.70;91.90;;;;;;5065357;28;20071;-88
2022/06/06 12:28:28;;;;;;;1.93;0.83;;;19.90;84.70;;;;;;5058572;28;20047;-88
2022/06/06 12:31:35;;;;;;;1.20;0.60;;;20.10;91.60;;;;;;5090657;28;20056;-88
2022/06/06 12:34:16;;;;;;;1.67;0.50;;;20.20;84.00;;;;;;5068123;28;21206;-88
2022/06/06 12:37:15;;;;;;;2.28;0.60;;;20.40;81.10;;;;;;5084234;28;20662;-87
2022/06/06 12:40:00;;;;;;;1.60;0.47;;;20.40;87.30;;;;;;5069511;28;20048;-88
2022/06/06 12:42:54;;;;;;;4.97;0.50;;;20.60;77.70;;;;;;5076066;28;20123;-89
2022/06/06 12:45:26;;;;;;;2.40;0.60;;;20.70;87.80;;;;;;5064359;28;20048;-90
2022/06/06 12:48:10;;;;;;;2.85;0.90;;;20.30;82.40;;;;;;5066412;28;20040;-89
2022/06/06 12:51:09;;;;;;;1.58;0.50;;;19.80;88.10;;;;;;5057193;28;20040;-85
2022/06/06 12:54:03;;;;;;;1.65;0.73;;;19.40;85.40;;;;;;5058239;28;20056;-89
2022/06/06 12:56:48;;;;;;;4.72;1.10;;;19.00;90.30;;;;;;5064339;28;20138;-87
2022/06/06 12:59:24;;;;;;;1.75;0.80;;;18.50;95.40;;;;;;5083374;28;20769;-87
2022/06/06 13:02:17;;;;;;;2.42;0.70;;;18.30;99.90;;;;;;5061860;28;20097;-87
2022/06/06 13:05:16;;;;;;;3.10;1.17;;;18.10;99.90;;;;;;5082583;28;20036;-87
2022/06/06 13:08:16;;;;;;;5.03;1.63;;;17.80;99.90;;;;;;5070371;28;20032;-86
2022/06/06 13:10:51;;;;;;;1.60;0.93;;;17.40;99.90;;;;;;5064183;28;20489;-86
2022/06/06 13:13:40;;;;;;;4.03;0.90;;;17.20;99.90;;;;;;5058743;28;20041;-87
2022/06/06 13:16:34;;;;;;;2.97;1.20;;;17.30;99.90;;;;;;5085466;28;20055;-86
2022/06/06 13:19:50;;;;;;;4.20;1.38;;;17.50;99.90;;;;;;5074250;28;20387;-85
2022/06/06 13:22:22;;;;;;;1.55;1.00;;;17.70;96.00;;;;;;5065119;28;20051;-85
2022/06/06 13:24:54;;;;;;;1.75;1.10;;;17.70;99.80;;;;;;5080598;28;20054;-85
2022/06/06 13:27:44;;;;;;;1.40;1.00;;;17.80;99.20;;;;;;5071899;28;20048;-89
2022/06/06 13:30:20;;;;;;;1.60;0.80;;;17.80;98.80;;;;;;5071996;28;20508;-87
2022/06/06 13:32:55;;;;;;;3.53;0.90;;;17.90;99.90;;;;;;5055863;28;20048;-86
2022/06/06 13:35:30;;;;;;;2.28;0.80;;;18.00;98.60;;;;;;5079300;28;20111;-88
2022/06/06 13:38:07;;;;;;;2.03;0.80;;;18.00;99.80;;;;;;5077032;28;20040;-87
2022/06/06 13:40:42;;;;;;;1.77;0.88;;;18.00;95.90;;;;;;5066023;28;20106;-85
2022/06/06 13:43:23;;;;;;;3.42;0.93;;;17.80;98.30;;;;;;5078926;28;20124;-86
2022/06/06 13:45:57;;;;;;;8.38;5.30;;;17.60;99.90;;;;;;5065979;28;20048;-86
2022/06/06 13:48:28;;;;;;;3.88;2.25;;;17.50;99.90;;;;;;5059630;28;20032;-91
2022/06/06 13:51:09;;;;;;;2.88;1.80;;;17.40;99.90;;;;;;5065079;28;20108;-89
2022/06/06 13:53:56;;;;;;;2.15;1.40;;;17.10;99.90;;;;;;5080977;28;20041;-86
2022/06/06 13:56:40;;;;;;;1.60;1.50;;;16.50;99.90;;;;;;5072614;28;20047;-86
2022/06/06 13:59:35;;;;;;;4.03;2.00;;;15.80;99.90;;;;;;5070337;28;20067;-89
2022/06/06 14:02:06;;;;;;;3.53;2.33;;;15.20;99.90;;;;;;5079074;28;20056;-86
2022/06/06 14:04:58;;;;;;;3.80;2.75;;;14.80;99.90;;;;;;5072978;28;20043;-87
2022/06/06 14:07:39;;;;;;;5.35;2.90;;;14.60;99.90;;;;;;5069793;28;20051;-88
2022/06/06 14:10:11;;;;;;;3.30;2.50;;;14.40;99.90;;;;;;5052746;28;20060;-88
2022/06/06 14:13:08;;;;;;;4.30;3.25;;;14.30;99.90;;;;;;5066474;28;20161;-87
2022/06/06 14:15:43;;;;;;;5.85;3.28;;;14.20;99.90;;;;;;5065195;28;20040;-87